気象予報士の航空気象 首都圏大雨

*All archives   *Admin

2010.07.05 (Mon)

首都圏大雨

RJTT 050823Z 14011KT 7000 SHRA FEW010 BKN015 BKN025 FEW030TCU 26/24 Q0996
RMK 1CU010 5CU015 6CU025 2TCU030 A2941 3500N-NE TCU OHD MOV NE

RJTT 050830Z 12011KT 4000 R34L///// R22///// R16L/1300VP1800N SHRA BR
FEW010 BKN015 BKN025 FEW030TCU 26/24 Q0996
RMK 1CU010 5CU015 6CU025 2TCU030 A2941 TCU OHD MOV NE


RJTT 050900Z 15009KT 6000 -SHRA BR FEW010 SCT015 BKN020 26/24 Q0996
RMK 1CU010 3CU015 7CU020 A2942 BR N


今年も「ゲリラ豪雨」と叫ぶ季節がやってきました。


都心の一部では、1時間あたりの雨量が100ミリを越えたところもあるようで、車がタイヤの上まで浸かっていた映像をニュースで見ました。


危険です。



 
ブログランキングに参加しています。
にほんブログ村 環境ブログ 天気・気象学へ
にほんブログ村
応援クリックをおねがします。


以下、アフィリエイトサイトです。


スポンサーサイト
23:20  |  気象・天気  |  TB(0)  |  CM(2)  |  EDIT  |  Top↑

羽田は豪雨はそこまで直撃しなかったようですね

練馬では1時ほどRI++状態でした

今週は大気が不安定のようですね
ja520k |  2010年07月06日(火) 22:20 | URL 【コメント編集】

★しばらく更新を休んでましてすみません。

コメントありがとうございます。
連休前に梅雨明けしそうですね。
瑞翔 |  2010年07月16日(金) 00:54 | URL 【コメント編集】

コメントを投稿する


 管理者だけに表示  (非公開コメント投稿可能)

▲PageTop

この記事のトラックバックURL

→http://weathereucalyptus.blog115.fc2.com/tb.php/536-f8a03eff
この記事にトラックバックする(FC2ブログユーザー)

この記事へのトラックバック

▲PageTop

 | BLOGTOP |